Time;durP1;ratioP1;P1;durP2;ratioP2;P2;SDS_P1;SDS_P2;PMS_P1;PMS_P2;Temp;Humidity;BMP_temperature;BMP_pressure;BME280_temperature;BME280_humidity;BME280_pressure;Samples;Min_cycle;Max_cycle;Signal;HPM_P1;HPM_P2
2022/01/12 00:01:14;;;;;;;;;58.00;46.00;;;;;6.09;60.15;103232.97;5063751;28;45555;-62
2022/01/12 00:03:41;;;;;;;;;63.00;45.75;;;;;6.08;60.50;103231.22;5070396;28;47042;-62
2022/01/12 00:06:06;;;;;;;;;56.75;46.00;;;;;6.04;60.48;103224.00;5065353;28;45319;-62
2022/01/12 00:08:32;;;;;;;;;61.75;49.00;;;;;6.09;60.99;103229.44;5072760;28;45303;-62
2022/01/12 00:11:03;;;;;;;;;64.00;48.50;;;;;6.01;60.21;103207.13;5070081;28;45302;-62
2022/01/12 00:13:28;;;;;;;;;56.25;45.00;;;;;6.10;60.67;103228.59;5070197;28;46276;-62
2022/01/12 00:15:54;;;;;;;;;63.50;48.00;;;;;5.96;60.90;103204.34;5071705;28;45391;-62
2022/01/12 00:18:20;;;;;;;;;52.75;43.50;;;;;6.04;60.15;103226.66;5076657;28;45295;-62
2022/01/12 00:20:47;;;;;;;;;53.00;44.00;;;;;6.00;60.57;103222.16;5070159;28;45430;-62
2022/01/12 00:23:14;;;;;;;;;56.00;45.25;;;;;5.98;60.01;103218.56;5066331;28;46278;-62
2022/01/12 00:34:10;;;;;;;;;59.75;45.00;;;;;6.00;60.96;103231.84;5063303;28;45299;-62
2022/01/12 00:36:36;;;;;;;;;53.50;43.50;;;;;6.01;60.85;103237.19;5062298;28;45734;-62
2022/01/12 00:39:06;;;;;;;;;58.00;44.00;;;;;6.03;61.04;103242.53;5062147;27;45256;-62
2022/01/12 00:41:32;;;;;;;;;60.25;46.00;;;;;6.04;61.31;103241.69;5065157;28;45483;-62
2022/01/12 00:43:59;;;;;;;;;63.50;48.25;;;;;5.94;60.68;103225.47;5072207;28;45389;-62
2022/01/12 00:46:27;;;;;;;;;65.75;50.25;;;;;6.05;59.94;103236.44;5067576;28;45760;-62
2022/01/12 00:48:55;;;;;;;;;58.00;48.50;;;;;6.03;61.01;103238.16;5076331;28;45518;-62
2022/01/12 00:51:21;;;;;;;;;61.75;48.00;;;;;5.99;60.56;103232.72;5065818;28;45335;-62
2022/01/12 00:53:47;;;;;;;;;56.25;45.75;;;;;6.04;60.71;103244.34;5061538;28;46162;-62
2022/01/12 00:56:13;;;;;;;;;58.50;43.75;;;;;6.06;60.94;103243.50;5065218;28;45553;-62
2022/01/12 00:58:38;;;;;;;;;55.25;44.00;;;;;6.08;60.36;103251.50;5062128;28;45441;-62
2022/01/12 01:01:04;;;;;;;;;55.75;44.50;;;;;6.08;61.20;103256.81;5067939;28;45386;-62
2022/01/12 01:03:30;;;;;;;;;57.00;44.50;;;;;6.08;60.83;103252.44;5068034;28;45297;-62
2022/01/12 01:05:57;;;;;;;;;46.75;39.50;;;;;6.10;60.10;103260.41;5068975;28;47510;-62
2022/01/12 01:08:23;;;;;;;;;58.25;43.00;;;;;6.12;60.25;103264.00;5068784;28;45241;-62
2022/01/12 01:10:51;;;;;;;;;56.00;46.00;;;;;6.11;60.61;103264.84;5061622;28;45674;-62
2022/01/12 01:13:22;;;;;;;;;55.75;42.50;;;;;6.13;60.08;103273.72;5071364;28;47193;-62
2022/01/12 01:26:26;;;;;;;;;57.25;44.75;;;;;6.15;60.54;103290.59;5078089;28;45239;-62
2022/01/12 01:28:52;;;;;;;;;58.50;45.25;;;;;6.14;60.81;103291.44;5063120;28;45435;-62
2022/01/12 01:31:19;;;;;;;;;55.75;45.75;;;;;6.14;60.03;103294.09;5073785;28;45430;-62
2022/01/12 01:33:45;;;;;;;;;52.25;44.00;;;;;6.12;60.77;103295.81;5072285;28;46020;-62
2022/01/12 01:36:10;;;;;;;;;63.25;43.75;;;;;6.16;60.77;103307.41;5075998;28;45444;-62
2022/01/12 01:38:36;;;;;;;;;64.25;46.75;;;;;6.16;60.29;103304.75;5069118;28;45374;-62
2022/01/12 01:41:02;;;;;;;;;54.75;42.50;;;;;6.15;60.22;103313.56;5064083;28;45306;-62
2022/01/12 01:43:44;;;;;;;;;57.50;42.75;;;;;6.05;61.00;103304.47;5060099;28;47272;-62
2022/01/12 01:54:35;;;;;;;;;56.25;42.75;;;;;6.17;60.65;103310.09;5035691;28;45650;-62
2022/01/12 01:57:00;;;;;;;;;57.25;44.25;;;;;6.11;60.43;103301.97;5068317;28;45584;-62
2022/01/12 01:59:25;;;;;;;;;57.00;43.25;;;;;6.10;61.12;103297.56;5073439;28;45354;-62
2022/01/12 02:01:51;;;;;;;;;61.25;48.25;;;;;6.15;60.53;103285.31;5061831;28;45584;-62
2022/01/12 02:04:17;;;;;;;;;61.25;47.50;;;;;6.19;60.95;103313.69;5074490;28;46069;-62
2022/01/12 02:06:42;;;;;;;;;57.00;42.00;;;;;6.21;60.66;103317.28;5067069;28;45298;-62
2022/01/12 02:09:07;;;;;;;;;57.50;44.00;;;;;6.16;60.61;103316.25;5073832;28;45284;-62
2022/01/12 02:11:33;;;;;;;;;43.75;36.25;;;;;6.17;60.99;103304.81;5074433;28;45714;-62
2022/01/12 02:13:59;;;;;;;;;62.00;45.50;;;;;6.14;60.74;103299.41;5070507;28;46169;-62
2022/01/12 02:16:28;;;;;;;;;56.75;44.75;;;;;6.22;60.99;103310.25;5070172;28;45422;-62
2022/01/12 02:19:20;;;;;;;;;57.75;48.00;;;;;6.21;60.63;103301.38;5068014;28;45256;-62
2022/01/12 02:35:53;;;;;;;;;56.50;43.50;;;;;6.21;59.84;103298.72;5065258;28;45673;-62
2022/01/12 02:41:05;;;;;;;;;53.75;42.00;;;;;6.20;60.84;103286.31;5054210;28;45487;-62
2022/01/12 02:53:50;;;;;;;;;54.00;42.25;;;;;6.14;60.24;103258.75;5059749;28;45603;-62
2022/01/12 02:56:20;;;;;;;;;48.75;40.75;;;;;6.20;60.58;103265.09;5059801;28;45350;-62
2022/01/12 02:58:48;;;;;;;;;53.00;40.25;;;;;6.18;60.92;103253.56;5060332;28;45461;-62
2022/01/12 03:03:43;;;;;;;;;57.50;41.25;;;;;6.01;60.25;103228.34;5063673;28;45314;-62
2022/01/12 03:06:09;;;;;;;;;44.00;38.50;;;;;6.19;60.69;103255.34;5059875;28;47030;-62
2022/01/12 03:08:38;;;;;;;;;58.50;45.50;;;;;6.15;60.23;103250.81;5068752;28;45718;-62
2022/01/12 03:11:05;;;;;;;;;55.50;39.00;;;;;6.21;61.29;103271.31;5059776;28;45292;-62
2022/01/12 03:13:31;;;;;;;;;55.00;41.75;;;;;6.22;60.95;103273.09;5068141;28;45457;-62
2022/01/12 03:15:57;;;;;;;;;49.00;39.00;;;;;6.22;61.08;103276.66;5061626;28;46466;-62
2022/01/12 03:18:22;;;;;;;;;56.00;41.75;;;;;6.22;61.23;103289.03;5073571;28;45954;-62
2022/01/12 03:20:49;;;;;;;;;50.75;41.00;;;;;6.19;60.55;103283.63;5065352;28;45539;-62
2022/01/12 03:23:16;;;;;;;;;51.00;41.25;;;;;6.10;60.15;103277.22;5064058;28;45418;-62
2022/01/12 03:25:42;;;;;;;;;55.25;42.50;;;;;6.12;61.14;103301.13;5059511;28;45484;-62
2022/01/12 03:28:08;;;;;;;;;53.50;43.75;;;;;6.09;60.46;103293.97;5058671;28;45228;-62
2022/01/12 03:30:41;;;;;;;;;59.00;42.50;;;;;6.07;60.88;103305.41;5063893;28;45700;-62
2022/01/12 03:33:18;;;;;;;;;58.00;45.00;;;;;6.05;60.42;103300.06;5064290;27;45584;-62
2022/01/12 03:36:12;;;;;;;;;61.50;50.00;;;;;5.98;61.15;103292.81;5062793;28;47140;-62
2022/01/12 03:38:38;;;;;;;;;57.25;43.75;;;;;5.87;60.62;103286.28;5064117;27;45647;-62
2022/01/12 03:41:03;;;;;;;;;47.00;39.00;;;;;5.84;61.28;103292.38;5062768;28;45301;-62
2022/01/12 03:43:28;;;;;;;;;53.25;41.75;;;;;5.87;61.66;103302.19;5064413;28;45361;-62
2022/01/12 03:45:54;;;;;;;;;58.25;45.50;;;;;5.81;61.23;103310.84;5059364;28;47196;-62
2022/01/12 03:48:19;;;;;;;;;63.25;49.50;;;;;5.72;61.00;103297.34;5059487;28;45298;-62
2022/01/12 03:50:45;;;;;;;;;55.50;44.25;;;;;5.70;61.65;103309.66;5077667;27;46526;-62
2022/01/12 03:53:10;;;;;;;;;57.25;42.00;;;;;5.64;61.90;103296.22;5062189;28;45436;-62
2022/01/12 03:55:36;;;;;;;;;62.00;45.75;;;;;5.67;61.79;103301.59;5058277;28;46284;-62
2022/01/12 03:58:01;;;;;;;;;48.25;42.00;;;;;5.61;61.89;103302.31;5059404;28;45377;-62
2022/01/12 04:00:26;;;;;;;;;55.75;44.50;;;;;5.63;61.58;103315.59;5065467;28;46093;-62
2022/01/12 04:02:52;;;;;;;;;60.50;49.25;;;;;5.64;61.35;103317.41;5066192;28;45508;-62
2022/01/12 04:10:36;;;;;;;;;47.50;41.25;;;;;5.68;61.92;103333.47;5066939;28;45362;-62
2022/01/12 04:13:01;;;;;;;;;52.50;44.50;;;;;5.74;61.68;103333.59;5071459;28;45585;-62
2022/01/12 04:15:27;;;;;;;;;51.75;41.75;;;;;5.74;62.13;103340.66;5059044;28;45908;-62
2022/01/12 04:17:53;;;;;;;;;52.25;45.25;;;;;5.80;62.61;103354.13;5062657;28;45406;-62
2022/01/12 04:20:18;;;;;;;;;58.00;48.00;;;;;5.84;62.14;103358.63;5070073;28;45299;-62
2022/01/12 04:25:28;;;;;;;;;59.25;46.75;;;;;5.81;61.62;103358.53;5065852;28;45573;-62
2022/01/12 04:27:54;;;;;;;;;54.00;43.25;;;;;5.73;62.03;103341.50;5076028;28;45439;-62
2022/01/12 04:30:20;;;;;;;;;50.00;41.50;;;;;5.80;61.61;103356.75;5070804;28;45337;-62
2022/01/12 04:32:45;;;;;;;;;49.00;39.25;;;;;5.85;61.77;103356.91;5064431;27;46155;-62
2022/01/12 04:35:13;;;;;;;;;38.25;33.00;;;;;5.84;61.45;103353.34;5060064;28;45497;-62
2022/01/12 04:37:38;;;;;;;;;60.00;46.50;;;;;5.88;61.96;103368.50;5072327;28;45351;-62
2022/01/12 04:40:04;;;;;;;;;52.75;42.25;;;;;5.85;61.63;103362.22;5066225;28;45272;-62
2022/01/12 04:42:30;;;;;;;;;50.00;38.25;;;;;5.73;61.76;103341.50;5066161;28;45448;-62
2022/01/12 04:45:03;;;;;;;;;52.75;41.00;;;;;5.94;62.03;103367.75;5078244;28;47088;-62
2022/01/12 04:47:56;;;;;;;;;50.00;41.25;;;;;5.86;61.86;103367.53;5070980;28;45296;-62
2022/01/12 04:50:15;;;;;;;;;53.00;41.00;;;;;5.79;61.53;103354.97;5069846;28;45420;-62
2022/01/12 04:52:41;;;;;;;;;48.75;37.75;;;;;5.92;61.68;103366.81;5069340;28;45489;-62
2022/01/12 04:55:07;;;;;;;;;44.25;37.25;;;;;5.93;62.08;103372.19;5068977;28;47347;-62
2022/01/12 04:57:33;;;;;;;;;44.50;37.25;;;;;5.88;61.00;103373.81;5085574;27;46343;-62
2022/01/12 05:00:11;;;;;;;;;49.75;41.00;;;;;5.59;61.68;103313.72;5067553;28;45323;-62
2022/01/12 05:13:36;;;;;;;;;53.75;42.75;;;;;5.67;61.66;103349.31;5075610;28;45413;-62
2022/01/12 05:16:02;;;;;;;;;48.75;41.75;;;;;5.86;62.13;103382.53;5070816;28;45376;-62
2022/01/12 05:18:31;;;;;;;;;47.25;41.75;;;;;5.89;62.03;103386.19;5075168;28;45599;-62
2022/01/12 05:20:57;;;;;;;;;53.25;41.50;;;;;5.86;61.67;103383.44;5071088;28;45537;-62
2022/01/12 05:23:24;;;;;;;;;52.25;42.50;;;;;5.85;61.75;103392.25;5076833;28;45482;-62
2022/01/12 05:25:51;;;;;;;;;57.00;41.50;;;;;5.78;62.00;103355.84;5064654;28;46467;-62
2022/01/12 05:28:17;;;;;;;;;34.75;29.00;;;;;5.80;61.91;103351.47;5065005;28;45722;-62
2022/01/12 05:30:43;;;;;;;;;56.75;44.75;;;;;5.89;62.33;103364.97;5073893;28;45480;-62
2022/01/12 05:33:09;;;;;;;;;61.50;44.75;;;;;5.67;62.26;103317.50;5070153;27;45599;-62
2022/01/12 05:35:34;;;;;;;;;53.75;41.25;;;;;5.94;61.06;103371.31;5068680;28;46009;-62
2022/01/12 05:38:02;;;;;;;;;57.25;43.75;;;;;5.94;61.79;103376.59;5068793;28;45623;-62
2022/01/12 05:40:37;;;;;;;;;56.00;45.25;;;;;5.96;61.72;103368.72;5069996;28;45481;-62
2022/01/12 05:43:05;;;;;;;;;60.50;46.50;;;;;5.88;61.74;103349.03;5061391;28;45496;-62
2022/01/12 05:45:37;;;;;;;;;41.25;37.00;;;;;5.79;61.56;103347.00;5066374;28;45453;-62
2022/01/12 05:50:34;;;;;;;;;47.25;39.75;;;;;5.65;61.65;103330.72;5071147;28;45424;-62
2022/01/12 05:53:00;;;;;;;;;52.00;42.50;;;;;5.78;61.87;103366.44;5059178;28;45414;-62
2022/01/12 05:55:25;;;;;;;;;57.75;42.00;;;;;5.80;61.87;103361.16;5074091;28;48390;-62
2022/01/12 05:57:51;;;;;;;;;54.50;39.50;;;;;5.84;61.78;103355.09;5063775;28;45307;-62
2022/01/12 06:00:19;;;;;;;;;55.25;45.50;;;;;5.79;62.15;103348.78;5068088;28;45677;-62
2022/01/12 06:02:47;;;;;;;;;50.50;38.25;;;;;5.88;61.39;103365.84;5061127;28;45394;-62
2022/01/12 06:05:23;;;;;;;;;44.25;41.25;;;;;5.72;61.69;103361.84;5060970;28;46273;-62
2022/01/12 06:07:50;;;;;;;;;57.75;41.00;;;;;5.80;61.72;103377.06;5062853;28;45173;-62
2022/01/12 06:10:16;;;;;;;;;45.50;38.00;;;;;5.79;62.15;103372.63;5060223;28;45370;-62
2022/01/12 06:12:42;;;;;;;;;40.50;37.75;;;;;5.82;61.41;103375.38;5066033;28;45419;-62
2022/01/12 06:15:08;;;;;;;;;59.50;41.25;;;;;5.74;62.25;103356.56;5064270;28;46247;-62
2022/01/12 06:17:35;;;;;;;;;46.50;41.00;;;;;5.94;61.93;103381.03;5071153;28;45360;-62
2022/01/12 06:20:02;;;;;;;;;50.00;38.00;;;;;5.93;61.88;103376.56;5070059;28;45330;-63
2022/01/12 06:22:28;;;;;;;;;51.50;42.50;;;;;6.02;61.76;103386.59;5067938;28;45351;-62
2022/01/12 06:24:54;;;;;;;;;50.25;38.50;;;;;5.98;61.39;103372.34;5059503;28;46190;-62
2022/01/12 06:27:21;;;;;;;;;54.50;43.75;;;;;5.88;62.20;103349.94;5065098;28;45792;-62
2022/01/12 06:30:02;;;;;;;;;59.00;40.25;;;;;5.99;61.45;103368.81;5071509;28;45502;-62
2022/01/12 06:32:31;;;;;;;;;47.25;38.75;;;;;5.93;61.79;103356.28;5073463;28;45349;-62
2022/01/12 06:34:57;;;;;;;;;47.75;39.25;;;;;6.06;61.67;103380.50;5064792;28;47604;-61
2022/01/12 06:37:23;;;;;;;;;57.25;46.00;;;;;6.09;61.86;103386.78;5066377;28;45322;-62
2022/01/12 06:39:50;;;;;;;;;50.50;41.50;;;;;6.01;61.79;103368.88;5074462;28;45513;-61
2022/01/12 06:42:18;;;;;;;;;51.50;41.00;;;;;5.99;61.59;103359.97;5066834;28;45228;-62
2022/01/12 06:44:49;;;;;;;;;53.00;43.00;;;;;6.07;61.99;103383.22;5075187;28;46839;-62
2022/01/12 06:47:24;;;;;;;;;56.50;41.75;;;;;5.94;61.52;103355.41;5073247;28;45461;-61
2022/01/12 06:49:52;;;;;;;;;52.75;40.25;;;;;6.01;61.86;103371.53;5066967;27;45564;-62
2022/01/12 06:52:20;;;;;;;;;51.25;40.25;;;;;6.11;61.89;103386.84;5065422;28;45545;-62
2022/01/12 06:54:46;;;;;;;;;56.75;43.00;;;;;6.20;61.82;103407.41;5067852;28;45784;-62
2022/01/12 06:57:11;;;;;;;;;56.75;45.00;;;;;6.05;62.00;103379.63;5079933;27;45452;-62
2022/01/12 06:59:46;;;;;;;;;58.50;44.50;;;;;6.06;61.79;103378.75;5079653;27;45578;-62
2022/01/12 07:02:12;;;;;;;;;61.75;44.75;;;;;5.91;61.79;103352.69;5069318;27;45379;-62
2022/01/12 07:04:41;;;;;;;;;52.75;40.00;;;;;6.26;62.02;103407.59;5061111;27;47482;-62
2022/01/12 07:07:06;;;;;;;;;48.00;43.50;;;;;6.21;61.42;103404.81;5073723;27;45628;-62
2022/01/12 07:09:34;;;;;;;;;47.50;40.50;;;;;6.26;61.16;103415.56;5067059;28;45354;-61
2022/01/12 07:12:00;;;;;;;;;52.25;42.25;;;;;6.15;61.32;103387.81;5074603;28;45417;-64
2022/01/12 07:14:25;;;;;;;;;48.00;41.50;;;;;6.23;61.86;103397.81;5065774;28;46398;-64
2022/01/12 07:16:50;;;;;;;;;58.75;41.75;;;;;6.14;61.15;103383.38;5073399;28;45459;-64
2022/01/12 07:19:16;;;;;;;;;50.50;41.00;;;;;6.17;61.80;103379.06;5078256;28;45398;-65
2022/01/12 07:21:41;;;;;;;;;45.50;40.25;;;;;5.98;61.44;103342.25;5073138;28;45313;-65
2022/01/12 07:24:07;;;;;;;;;57.75;42.00;;;;;6.26;61.52;103397.88;5075141;27;45402;-65
2022/01/12 07:26:34;;;;;;;;;56.50;44.00;;;;;6.07;61.70;103363.75;5070361;28;45614;-67
2022/01/12 07:29:00;;;;;;;;;49.50;40.50;;;;;6.18;61.70;103378.22;5069087;28;45554;-65
2022/01/12 07:31:25;;;;;;;;;54.25;42.00;;;;;6.21;61.77;103393.31;5069954;28;45470;-65
2022/01/12 07:33:50;;;;;;;;;45.00;40.00;;;;;6.22;61.58;103400.41;5064149;28;46442;-65
2022/01/12 07:36:17;;;;;;;;;56.00;42.50;;;;;6.14;61.82;103384.28;5069438;28;45223;-65
2022/01/12 07:38:43;;;;;;;;;56.00;44.50;;;;;6.23;61.78;103403.13;5064001;28;45227;-65
2022/01/12 07:41:08;;;;;;;;;59.25;45.00;;;;;6.26;62.02;103416.44;5062231;28;45489;-65
2022/01/12 07:43:34;;;;;;;;;49.25;39.25;;;;;6.25;61.50;103417.31;5058899;28;45311;-62
2022/01/12 07:45:59;;;;;;;;;51.50;41.75;;;;;6.20;61.44;103410.97;5064692;28;45214;-62
2022/01/12 07:48:25;;;;;;;;;50.00;41.00;;;;;6.25;61.03;103435.00;5069930;28;45145;-61
2022/01/12 07:50:50;;;;;;;;;47.00;38.25;;;;;6.27;61.95;103449.19;5058415;27;45892;-61
2022/01/12 07:53:15;;;;;;;;;45.75;40.00;;;;;6.26;62.11;103450.94;5070928;28;46103;-61
2022/01/12 07:55:41;;;;;;;;;51.75;39.50;;;;;6.24;61.45;103455.28;5069315;27;46120;-61
2022/01/12 07:58:06;;;;;;;;;58.25;45.00;;;;;6.24;61.57;103454.41;5060916;27;45433;-61
2022/01/12 08:00:32;;;;;;;;;53.00;43.00;;;;;6.27;61.26;103465.13;5058227;27;45543;-61
2022/01/12 08:02:57;;;;;;;;;53.25;41.75;;;;;6.25;61.52;103465.06;5067068;27;46086;-62
2022/01/12 08:05:23;;;;;;;;;57.00;46.25;;;;;6.21;61.82;103449.91;5065393;27;45354;-61
2022/01/12 08:07:48;;;;;;;;;56.75;43.50;;;;;6.15;62.10;103438.22;5067000;27;45570;-61
2022/01/12 08:10:15;;;;;;;;;58.25;42.75;;;;;6.20;62.12;103453.44;5069473;27;45482;-61
2022/01/12 08:12:41;;;;;;;;;54.00;43.50;;;;;6.16;61.46;103446.22;5071433;27;45762;-61
2022/01/12 08:15:08;;;;;;;;;53.25;42.25;;;;;6.23;61.38;103469.44;5070297;27;45429;-63
2022/01/12 08:17:34;;;;;;;;;56.25;42.00;;;;;6.20;61.24;103476.38;5076579;27;45439;-62
2022/01/12 08:20:01;;;;;;;;;62.25;44.50;;;;;6.23;61.30;103487.06;5076143;27;45544;-61
2022/01/12 08:22:27;;;;;;;;;52.50;41.75;;;;;6.22;61.62;103488.84;5062928;27;47061;-62
2022/01/12 08:24:52;;;;;;;;;49.75;41.50;;;;;6.16;61.92;103475.38;5067946;27;45932;-62
2022/01/12 08:27:18;;;;;;;;;56.75;42.50;;;;;6.24;61.75;103499.50;5075329;27;46150;-62
2022/01/12 08:29:43;;;;;;;;;58.25;45.75;;;;;6.16;61.44;103496.59;5068477;27;45496;-62
2022/01/12 08:32:09;;;;;;;;;61.00;44.75;;;;;6.21;62.03;103508.25;5066481;27;45533;-62
2022/01/12 08:34:34;;;;;;;;;65.25;48.00;;;;;6.21;62.10;103510.91;5070996;27;45458;-62
2022/01/12 08:37:00;;;;;;;;;56.25;42.75;;;;;6.20;62.44;103516.16;5070025;27;45858;-62
2022/01/12 08:39:25;;;;;;;;;63.25;48.25;;;;;6.22;61.78;103522.44;5072146;27;45723;-62
2022/01/12 08:41:51;;;;;;;;;50.25;41.25;;;;;6.11;62.06;103499.16;5067361;27;45446;-62
2022/01/12 08:44:16;;;;;;;;;62.50;48.75;;;;;6.20;61.80;103519.75;5072682;27;45821;-61
2022/01/12 08:46:42;;;;;;;;;56.25;44.50;;;;;6.14;61.84;103516.00;5062522;27;45463;-61
2022/01/12 08:49:08;;;;;;;;;47.25;37.75;;;;;6.22;61.80;103538.34;5077310;27;45813;-62
2022/01/12 08:51:36;;;;;;;;;59.75;47.50;;;;;6.21;61.62;103536.53;5074688;27;45355;-62
2022/01/12 08:54:02;;;;;;;;;43.75;38.75;;;;;6.19;62.39;103539.16;5063230;27;45897;-62
2022/01/12 08:56:27;;;;;;;;;53.00;45.50;;;;;6.18;62.31;103532.06;5074576;27;45306;-62
2022/01/12 08:58:53;;;;;;;;;61.25;48.00;;;;;6.12;62.10;103532.75;5072141;27;45645;-62
2022/01/12 09:01:18;;;;;;;;;52.75;44.75;;;;;6.06;62.63;103524.59;5077947;27;46035;-61
2022/01/12 09:03:44;;;;;;;;;59.25;44.75;;;;;6.11;62.67;103533.63;5074354;27;45840;-63
2022/01/12 09:06:09;;;;;;;;;61.50;47.75;;;;;6.08;62.25;103538.81;5076902;27;45422;-64
2022/01/12 09:08:38;;;;;;;;;56.00;42.75;;;;;5.95;62.56;103533.97;5068545;27;45511;-62
2022/01/12 09:11:04;;;;;;;;;60.50;48.25;;;;;6.00;62.02;103550.94;5072974;27;46113;-62
2022/01/12 09:13:30;;;;;;;;;55.50;42.00;;;;;5.85;62.56;103542.47;5072958;27;45381;-62
2022/01/12 09:15:56;;;;;;;;;59.25;46.00;;;;;5.83;62.58;103552.09;5074047;27;45428;-62
2022/01/12 09:18:21;;;;;;;;;65.25;46.75;;;;;5.87;62.49;103564.63;5066386;27;45595;-62
2022/01/12 09:20:47;;;;;;;;;50.75;42.75;;;;;5.88;62.24;103555.81;5069140;27;45693;-62
2022/01/12 09:23:12;;;;;;;;;64.00;48.50;;;;;5.85;62.49;103561.03;5072087;27;45397;-62
2022/01/12 09:25:39;;;;;;;;;50.25;44.50;;;;;5.86;62.55;103571.66;5067446;27;45440;-62
2022/01/12 09:28:08;;;;;;;;;60.50;47.75;;;;;5.86;62.33;103586.66;5072892;27;45479;-62
2022/01/12 09:30:36;;;;;;;;;66.75;52.50;;;;;5.81;63.45;103588.28;5067248;27;45410;-67
2022/01/12 09:33:02;;;;;;;;;59.00;48.25;;;;;5.81;63.02;103597.13;5062516;27;45390;-65
2022/01/12 09:35:28;;;;;;;;;62.00;49.50;;;;;5.81;63.65;103601.53;5065285;27;45417;-62
2022/01/12 09:37:53;;;;;;;;;61.50;49.00;;;;;5.78;63.59;103594.38;5065451;27;45327;-61
2022/01/12 09:40:19;;;;;;;;;70.25;51.50;;;;;5.84;63.47;103610.47;5070270;27;46685;-62
2022/01/12 09:42:47;;;;;;;;;66.25;49.00;;;;;5.84;63.23;103610.47;5063653;27;45323;-62
2022/01/12 09:45:16;;;;;;;;;61.75;48.50;;;;;5.86;63.53;103607.88;5060350;27;45512;-62
2022/01/12 09:47:44;;;;;;;;;61.75;51.75;;;;;5.99;63.26;103622.50;5072901;27;45331;-62
2022/01/12 09:50:11;;;;;;;;;60.25;48.75;;;;;6.04;63.33;103626.19;5068073;27;45584;-62
2022/01/12 09:52:36;;;;;;;;;62.75;48.00;;;;;6.10;63.43;103634.34;5061401;27;46704;-62
2022/01/12 09:55:02;;;;;;;;;64.00;48.25;;;;;6.07;62.88;103624.53;5068733;27;45776;-63
2022/01/12 09:57:28;;;;;;;;;64.75;50.75;;;;;6.11;63.39;103621.16;5076101;27;45546;-62
2022/01/12 09:59:53;;;;;;;;;68.25;51.75;;;;;6.22;63.53;103624.13;5066301;27;45653;-62
2022/01/12 10:02:21;;;;;;;;;63.50;50.25;;;;;6.22;62.60;103623.25;5057837;27;45337;-62
2022/01/12 10:04:46;;;;;;;;;69.75;53.50;;;;;6.16;63.31;103617.72;5071447;27;45400;-62
2022/01/12 10:07:13;;;;;;;;;67.25;49.75;;;;;6.17;62.67;103615.13;5064549;27;45331;-62
2022/01/12 10:09:43;;;;;;;;;66.75;53.00;;;;;6.28;62.73;103621.69;5075636;27;46283;-62
2022/01/12 10:12:15;;;;;;;;;67.75;53.00;;;;;6.21;63.51;103611.69;5069566;27;45466;-62
2022/01/12 10:14:45;;;;;;;;;65.50;52.75;;;;;6.22;62.94;103626.78;5053164;27;45508;-62
2022/01/12 10:17:12;;;;;;;;;63.25;50.00;;;;;6.25;62.60;103623.34;5070869;27;46150;-62
2022/01/12 10:19:39;;;;;;;;;72.00;54.50;;;;;6.17;62.88;103606.28;5060356;27;45531;-62
2022/01/12 10:22:07;;;;;;;;;74.25;57.00;;;;;6.24;63.01;103624.19;5064609;27;45473;-62
2022/01/12 10:24:37;;;;;;;;;62.25;47.75;;;;;6.27;63.00;103632.25;5059704;27;45439;-62
2022/01/12 10:27:11;;;;;;;;;65.25;48.50;;;;;6.26;63.54;103614.50;5068944;27;45476;-62
2022/01/12 10:29:36;;;;;;;;;42.75;37.75;;;;;6.33;63.24;103624.44;5066914;27;45517;-62
2022/01/12 10:32:04;;;;;;;;;61.25;46.00;;;;;6.30;63.25;103614.66;5067006;27;45336;-62
2022/01/12 10:34:47;;;;;;;;;62.50;49.25;;;;;6.43;63.04;103625.66;5075153;27;45401;-62
2022/01/12 10:37:17;;;;;;;;;61.00;48.75;;;;;6.46;62.73;103623.09;5065654;27;45370;-63
2022/01/12 10:39:50;;;;;;;;;58.25;46.75;;;;;6.48;63.00;103629.34;5061073;27;46426;-61
2022/01/12 10:42:26;;;;;;;;;63.50;49.50;;;;;6.52;62.66;103617.97;5070037;27;45714;-62
2022/01/12 10:44:57;;;;;;;;;54.50;45.25;;;;;6.53;63.06;103613.56;5070531;27;45428;-61
2022/01/12 10:47:31;;;;;;;;;62.25;50.00;;;;;6.61;63.46;103625.31;5075960;27;45323;-62
2022/01/12 10:50:02;;;;;;;;;60.50;48.00;;;;;6.66;63.09;103621.94;5068307;27;45984;-62
2022/01/12 10:52:38;;;;;;;;;62.25;49.25;;;;;6.72;62.78;103613.28;5051539;28;45328;-62
2022/01/12 10:55:10;;;;;;;;;67.50;49.75;;;;;6.79;62.96;103617.00;5071239;27;45441;-62
2022/01/12 10:57:41;;;;;;;;;60.25;48.25;;;;;6.84;62.86;103613.63;5075638;27;45426;-62
2022/01/12 11:00:22;;;;;;;;;65.50;51.50;;;;;6.90;63.27;103617.31;5074400;27;45455;-62
2022/01/12 11:02:51;;;;;;;;;60.75;48.00;;;;;6.79;62.85;103598.41;5059580;27;45797;-62
2022/01/12 11:05:18;;;;;;;;;62.00;49.50;;;;;6.90;62.59;103618.22;5070309;27;45446;-62
2022/01/12 11:07:44;;;;;;;;;59.00;47.75;;;;;6.91;62.88;103627.09;5070909;27;45457;-62
2022/01/12 11:10:11;;;;;;;;;64.50;49.25;;;;;6.93;62.78;103626.25;5070398;27;46866;-62
2022/01/12 11:12:39;;;;;;;;;65.50;51.50;;;;;6.97;62.82;103624.63;5074984;27;45269;-62
2022/01/12 11:15:11;;;;;;;;;65.50;48.75;;;;;6.95;62.44;103613.03;5070607;27;45285;-62
2022/01/12 11:17:38;;;;;;;;;62.75;51.00;;;;;6.99;62.40;103615.81;5067727;27;46425;-62
2022/01/12 11:20:24;;;;;;;;;60.00;46.50;;;;;7.06;62.41;103630.19;5070136;27;46324;-62
2022/01/12 11:23:25;;;;;;;;;62.00;48.75;;;;;7.10;62.42;103631.16;5064682;27;45968;-62
2022/01/12 11:25:52;;;;;;;;;63.50;47.25;;;;;7.12;62.39;103613.53;5034886;28;45558;-62
2022/01/12 11:28:19;;;;;;;;;64.50;52.00;;;;;7.09;62.52;103605.47;5062748;27;45432;-62
2022/01/12 11:30:48;;;;;;;;;71.25;55.00;;;;;7.18;62.25;103613.69;5072214;27;46105;-62
2022/01/12 11:33:14;;;;;;;;;67.25;52.75;;;;;7.15;62.75;103611.84;5074067;27;45782;-62
2022/01/12 11:35:46;;;;;;;;;61.25;48.00;;;;;7.26;62.72;103614.78;5068942;27;45469;-62
2022/01/12 11:38:34;;;;;;;;;74.50;54.00;;;;;7.29;62.05;103611.34;5069997;27;45381;-62
2022/01/12 11:41:15;;;;;;;;;69.50;53.00;;;;;7.23;62.07;103596.09;5069082;27;46168;-62
2022/01/12 11:43:47;;;;;;;;;64.50;50.75;;;;;7.29;61.98;103590.97;5070327;27;45509;-64
2022/01/12 11:46:27;;;;;;;;;68.50;53.50;;;;;7.40;62.06;103605.44;5066658;27;45378;-63
2022/01/12 11:48:55;;;;;;;;;72.25;56.00;;;;;7.48;61.47;103607.41;5068566;27;45499;-62
2022/01/12 11:51:41;;;;;;;;;68.00;51.25;;;;;7.51;61.62;103611.03;5076125;27;48562;-62
2022/01/12 11:54:12;;;;;;;;;66.75;53.25;;;;;7.54;61.31;103608.47;5074566;27;45944;-62
2022/01/12 11:56:51;;;;;;;;;75.25;58.25;;;;;7.49;60.89;103582.63;5077015;27;45698;-63
2022/01/12 11:59:17;;;;;;;;;67.75;53.75;;;;;7.60;61.37;103595.34;5072976;27;45549;-62
2022/01/12 12:01:49;;;;;;;;;62.75;49.75;;;;;7.63;61.20;103597.16;5068753;27;45441;-62
2022/01/12 12:04:30;;;;;;;;;66.75;54.00;;;;;7.61;60.95;103582.94;5063240;27;45426;-62
2022/01/12 12:07:11;;;;;;;;;69.00;50.25;;;;;7.61;61.05;103574.97;5077437;27;46906;-62
2022/01/12 12:09:37;;;;;;;;;68.75;54.25;;;;;7.60;60.96;103584.69;5062169;27;45469;-62
2022/01/12 12:12:10;;;;;;;;;59.00;48.00;;;;;7.59;60.86;103589.97;5078782;27;46426;-62
2022/01/12 12:14:36;;;;;;;;;65.25;50.00;;;;;7.54;61.26;103586.31;5067325;27;45342;-62
2022/01/12 12:17:02;;;;;;;;;70.00;53.25;;;;;7.60;60.93;103594.41;5078055;27;45609;-62
2022/01/12 12:19:28;;;;;;;;;74.00;54.00;;;;;7.59;61.12;103588.22;5064745;27;45531;-62
2022/01/12 12:21:53;;;;;;;;;65.75;52.50;;;;;7.57;60.52;103575.75;5077094;27;48381;-62
2022/01/12 12:24:18;;;;;;;;;66.50;51.75;;;;;7.55;60.47;103582.78;5070462;27;45345;-61
2022/01/12 12:26:52;;;;;;;;;68.25;54.25;;;;;7.57;60.39;103581.97;5068710;27;45319;-61
2022/01/12 12:29:26;;;;;;;;;61.75;49.25;;;;;7.56;59.84;103581.91;5068536;27;45390;-62
2022/01/12 12:31:54;;;;;;;;;63.00;49.25;;;;;7.53;60.54;103582.72;5074726;27;45451;-61
2022/01/12 12:34:24;;;;;;;;;67.25;52.00;;;;;7.54;60.67;103567.69;5067561;27;45417;-62
2022/01/12 12:37:03;;;;;;;;;65.50;51.25;;;;;7.56;60.61;103568.63;5064542;27;45583;-62
2022/01/12 12:39:34;;;;;;;;;57.75;46.50;;;;;7.58;60.09;103573.16;5074559;27;45576;-62